sensor_id;sensor_type;location;lat;lon;timestamp;temperature;humidity
5697;DHT22;2873;50.966;7.210;2022-08-06T00:01:52;17.70;99.90
5697;DHT22;2873;50.966;7.210;2022-08-06T00:04:19;17.50;99.90
5697;DHT22;2873;50.966;7.210;2022-08-06T00:06:45;17.80;99.90
5697;DHT22;2873;50.966;7.210;2022-08-06T00:09:11;17.40;99.90
5697;DHT22;2873;50.966;7.210;2022-08-06T00:11:40;17.60;99.90
5697;DHT22;2873;50.966;7.210;2022-08-06T00:14:06;17.30;99.90
5697;DHT22;2873;50.966;7.210;2022-08-06T00:16:33;17.50;99.90
5697;DHT22;2873;50.966;7.210;2022-08-06T00:18:58;17.40;99.90
5697;DHT22;2873;50.966;7.210;2022-08-06T00:21:24;17.30;99.90
5697;DHT22;2873;50.966;7.210;2022-08-06T00:23:49;17.30;99.90
5697;DHT22;2873;50.966;7.210;2022-08-06T00:26:15;17.20;99.90
5697;DHT22;2873;50.966;7.210;2022-08-06T00:28:40;17.20;99.90
5697;DHT22;2873;50.966;7.210;2022-08-06T00:31:06;17.10;99.90
5697;DHT22;2873;50.966;7.210;2022-08-06T00:33:33;17.00;99.90
5697;DHT22;2873;50.966;7.210;2022-08-06T00:35:58;16.90;99.90
5697;DHT22;2873;50.966;7.210;2022-08-06T00:38:24;16.80;99.90
5697;DHT22;2873;50.966;7.210;2022-08-06T00:40:50;16.80;99.90
5697;DHT22;2873;50.966;7.210;2022-08-06T00:43:16;16.80;99.90
5697;DHT22;2873;50.966;7.210;2022-08-06T00:45:42;16.80;99.90
5697;DHT22;2873;50.966;7.210;2022-08-06T00:48:07;16.80;99.90
5697;DHT22;2873;50.966;7.210;2022-08-06T00:50:33;16.70;99.90
5697;DHT22;2873;50.966;7.210;2022-08-06T00:53:00;16.70;99.90
5697;DHT22;2873;50.966;7.210;2022-08-06T00:55:26;16.70;99.90
5697;DHT22;2873;50.966;7.210;2022-08-06T00:57:52;16.60;99.90
5697;DHT22;2873;50.966;7.210;2022-08-06T01:00:17;16.90;99.90
5697;DHT22;2873;50.966;7.210;2022-08-06T01:02:43;16.40;99.90
5697;DHT22;2873;50.966;7.210;2022-08-06T01:05:08;16.30;99.90
5697;DHT22;2873;50.966;7.210;2022-08-06T01:07:34;16.40;99.90
5697;DHT22;2873;50.966;7.210;2022-08-06T01:09:59;16.00;99.90
5697;DHT22;2873;50.966;7.210;2022-08-06T01:12:26;16.00;99.90
5697;DHT22;2873;50.966;7.210;2022-08-06T01:14:52;15.80;99.90
5697;DHT22;2873;50.966;7.210;2022-08-06T01:18:09;15.80;99.90
5697;DHT22;2873;50.966;7.210;2022-08-06T01:23:37;15.80;99.90
5697;DHT22;2873;50.966;7.210;2022-08-06T01:29:22;15.70;99.90
5697;DHT22;2873;50.966;7.210;2022-08-06T01:32:09;15.80;99.90
5697;DHT22;2873;50.966;7.210;2022-08-06T01:34:54;15.90;99.90
5697;DHT22;2873;50.966;7.210;2022-08-06T01:37:30;15.70;99.90
5697;DHT22;2873;50.966;7.210;2022-08-06T01:40:00;15.70;99.90
5697;DHT22;2873;50.966;7.210;2022-08-06T01:42:29;15.70;99.90
5697;DHT22;2873;50.966;7.210;2022-08-06T01:44:56;15.60;99.90
5697;DHT22;2873;50.966;7.210;2022-08-06T01:47:27;15.60;99.90
5697;DHT22;2873;50.966;7.210;2022-08-06T01:49:57;15.70;99.90
5697;DHT22;2873;50.966;7.210;2022-08-06T01:52:25;15.80;99.90
5697;DHT22;2873;50.966;7.210;2022-08-06T01:54:53;15.80;99.90
5697;DHT22;2873;50.966;7.210;2022-08-06T01:57:21;15.60;99.90
5697;DHT22;2873;50.966;7.210;2022-08-06T01:59:50;15.70;99.90
5697;DHT22;2873;50.966;7.210;2022-08-06T02:02:20;15.70;99.90
5697;DHT22;2873;50.966;7.210;2022-08-06T02:04:48;15.70;99.90
5697;DHT22;2873;50.966;7.210;2022-08-06T02:07:16;15.70;99.90
5697;DHT22;2873;50.966;7.210;2022-08-06T02:09:44;15.70;99.90
5697;DHT22;2873;50.966;7.210;2022-08-06T02:12:14;15.70;99.90
5697;DHT22;2873;50.966;7.210;2022-08-06T02:15:07;15.70;99.90
5697;DHT22;2873;50.966;7.210;2022-08-06T02:17:35;15.80;99.90
5697;DHT22;2873;50.966;7.210;2022-08-06T02:20:02;15.60;99.90
5697;DHT22;2873;50.966;7.210;2022-08-06T02:22:29;15.50;99.90
5697;DHT22;2873;50.966;7.210;2022-08-06T02:25:02;15.50;99.90
5697;DHT22;2873;50.966;7.210;2022-08-06T02:27:31;15.50;99.90
5697;DHT22;2873;50.966;7.210;2022-08-06T02:29:58;15.50;99.90
5697;DHT22;2873;50.966;7.210;2022-08-06T02:32:24;15.40;99.90
5697;DHT22;2873;50.966;7.210;2022-08-06T02:34:50;15.40;99.90
5697;DHT22;2873;50.966;7.210;2022-08-06T02:37:20;15.50;99.90
5697;DHT22;2873;50.966;7.210;2022-08-06T02:39:53;15.40;99.90
5697;DHT22;2873;50.966;7.210;2022-08-06T02:42:32;15.40;99.90
5697;DHT22;2873;50.966;7.210;2022-08-06T02:45:05;15.40;99.90
5697;DHT22;2873;50.966;7.210;2022-08-06T02:47:37;15.40;99.90
5697;DHT22;2873;50.966;7.210;2022-08-06T02:50:05;15.40;99.90
5697;DHT22;2873;50.966;7.210;2022-08-06T02:52:41;15.30;99.90
5697;DHT22;2873;50.966;7.210;2022-08-06T02:55:20;15.50;99.90
5697;DHT22;2873;50.966;7.210;2022-08-06T02:57:52;15.40;99.90
5697;DHT22;2873;50.966;7.210;2022-08-06T03:00:19;15.30;99.90
5697;DHT22;2873;50.966;7.210;2022-08-06T03:02:47;15.20;99.90
5697;DHT22;2873;50.966;7.210;2022-08-06T03:05:16;15.30;99.90
5697;DHT22;2873;50.966;7.210;2022-08-06T03:07:43;15.20;99.90
5697;DHT22;2873;50.966;7.210;2022-08-06T03:10:11;15.10;99.90
5697;DHT22;2873;50.966;7.210;2022-08-06T03:12:37;15.00;99.90
5697;DHT22;2873;50.966;7.210;2022-08-06T03:15:04;15.00;99.90
5697;DHT22;2873;50.966;7.210;2022-08-06T03:17:32;14.90;99.90
5697;DHT22;2873;50.966;7.210;2022-08-06T03:20:00;14.90;99.90
5697;DHT22;2873;50.966;7.210;2022-08-06T03:22:28;14.80;99.90
5697;DHT22;2873;50.966;7.210;2022-08-06T03:24:56;14.70;99.90
5697;DHT22;2873;50.966;7.210;2022-08-06T03:27:23;14.60;99.90
5697;DHT22;2873;50.966;7.210;2022-08-06T03:29:50;14.50;99.90
5697;DHT22;2873;50.966;7.210;2022-08-06T03:32:16;14.40;99.90
5697;DHT22;2873;50.966;7.210;2022-08-06T03:34:42;14.40;99.90
5697;DHT22;2873;50.966;7.210;2022-08-06T03:37:09;14.70;99.90
5697;DHT22;2873;50.966;7.210;2022-08-06T03:39:37;14.40;99.90
5697;DHT22;2873;50.966;7.210;2022-08-06T03:42:03;14.40;99.90
5697;DHT22;2873;50.966;7.210;2022-08-06T03:44:29;14.40;99.90
5697;DHT22;2873;50.966;7.210;2022-08-06T03:47:07;14.40;99.90
5697;DHT22;2873;50.966;7.210;2022-08-06T03:49:45;14.40;99.90
5697;DHT22;2873;50.966;7.210;2022-08-06T03:52:20;14.60;99.90
5697;DHT22;2873;50.966;7.210;2022-08-06T03:54:49;14.40;99.90
5697;DHT22;2873;50.966;7.210;2022-08-06T03:57:19;14.30;99.90
5697;DHT22;2873;50.966;7.210;2022-08-06T03:59:47;14.20;99.90
5697;DHT22;2873;50.966;7.210;2022-08-06T04:02:14;14.20;99.90
5697;DHT22;2873;50.966;7.210;2022-08-06T04:04:42;14.20;99.90
5697;DHT22;2873;50.966;7.210;2022-08-06T04:07:08;14.10;99.90
5697;DHT22;2873;50.966;7.210;2022-08-06T04:09:34;14.20;99.90
5697;DHT22;2873;50.966;7.210;2022-08-06T04:12:01;14.10;99.90
5697;DHT22;2873;50.966;7.210;2022-08-06T04:14:28;13.90;99.90
5697;DHT22;2873;50.966;7.210;2022-08-06T04:16:54;13.90;99.90
5697;DHT22;2873;50.966;7.210;2022-08-06T04:19:20;13.80;99.90
5697;DHT22;2873;50.966;7.210;2022-08-06T04:21:47;13.80;99.90
5697;DHT22;2873;50.966;7.210;2022-08-06T04:24:14;14.10;99.90
5697;DHT22;2873;50.966;7.210;2022-08-06T04:26:41;13.80;99.90
5697;DHT22;2873;50.966;7.210;2022-08-06T04:29:10;13.80;99.90
5697;DHT22;2873;50.966;7.210;2022-08-06T04:31:37;13.80;99.90
5697;DHT22;2873;50.966;7.210;2022-08-06T04:34:03;13.80;99.90
5697;DHT22;2873;50.966;7.210;2022-08-06T04:36:30;13.70;99.90
5697;DHT22;2873;50.966;7.210;2022-08-06T04:38:56;13.70;99.90
5697;DHT22;2873;50.966;7.210;2022-08-06T04:41:22;13.80;99.90
5697;DHT22;2873;50.966;7.210;2022-08-06T04:43:48;13.80;99.90
5697;DHT22;2873;50.966;7.210;2022-08-06T04:46:14;13.90;99.90
5697;DHT22;2873;50.966;7.210;2022-08-06T04:48:40;13.90;99.90
5697;DHT22;2873;50.966;7.210;2022-08-06T04:51:06;13.80;99.90
5697;DHT22;2873;50.966;7.210;2022-08-06T04:53:40;13.90;99.90
5697;DHT22;2873;50.966;7.210;2022-08-06T04:56:06;13.90;99.90
5697;DHT22;2873;50.966;7.210;2022-08-06T04:58:33;13.90;99.90
5697;DHT22;2873;50.966;7.210;2022-08-06T05:00:59;13.90;99.90
5697;DHT22;2873;50.966;7.210;2022-08-06T05:03:24;13.90;99.90
5697;DHT22;2873;50.966;7.210;2022-08-06T05:05:59;13.80;99.90
5697;DHT22;2873;50.966;7.210;2022-08-06T05:08:27;13.80;99.90
5697;DHT22;2873;50.966;7.210;2022-08-06T05:11:00;14.00;99.90
5697;DHT22;2873;50.966;7.210;2022-08-06T05:13:30;13.80;99.90
5697;DHT22;2873;50.966;7.210;2022-08-06T05:16:02;13.90;99.90
5697;DHT22;2873;50.966;7.210;2022-08-06T05:18:34;13.80;99.90
5697;DHT22;2873;50.966;7.210;2022-08-06T05:21:02;13.80;99.90
5697;DHT22;2873;50.966;7.210;2022-08-06T05:23:45;13.80;99.90
5697;DHT22;2873;50.966;7.210;2022-08-06T05:26:12;13.80;99.90
5697;DHT22;2873;50.966;7.210;2022-08-06T05:28:41;13.80;99.90
5697;DHT22;2873;50.966;7.210;2022-08-06T05:31:08;13.90;99.90
5697;DHT22;2873;50.966;7.210;2022-08-06T05:33:36;13.80;99.90
5697;DHT22;2873;50.966;7.210;2022-08-06T05:36:03;13.90;99.90
5697;DHT22;2873;50.966;7.210;2022-08-06T05:38:30;14.00;99.90
5697;DHT22;2873;50.966;7.210;2022-08-06T05:40:56;14.00;99.90
5697;DHT22;2873;50.966;7.210;2022-08-06T05:43:22;14.00;99.90
5697;DHT22;2873;50.966;7.210;2022-08-06T05:45:49;14.30;99.90
5697;DHT22;2873;50.966;7.210;2022-08-06T05:48:19;14.00;99.90
5697;DHT22;2873;50.966;7.210;2022-08-06T05:50:59;14.20;99.90
5697;DHT22;2873;50.966;7.210;2022-08-06T05:53:33;14.10;99.90
5697;DHT22;2873;50.966;7.210;2022-08-06T05:56:05;14.10;99.90
5697;DHT22;2873;50.966;7.210;2022-08-06T05:58:37;14.20;99.90
5697;DHT22;2873;50.966;7.210;2022-08-06T06:01:05;14.20;99.90
5697;DHT22;2873;50.966;7.210;2022-08-06T06:03:33;14.20;99.90
5697;DHT22;2873;50.966;7.210;2022-08-06T06:06:01;14.20;99.90
5697;DHT22;2873;50.966;7.210;2022-08-06T06:08:27;14.20;99.90
5697;DHT22;2873;50.966;7.210;2022-08-06T06:10:53;14.20;99.90
5697;DHT22;2873;50.966;7.210;2022-08-06T06:13:23;14.40;99.90
5697;DHT22;2873;50.966;7.210;2022-08-06T06:16:09;14.40;99.90
5697;DHT22;2873;50.966;7.210;2022-08-06T06:21:32;14.60;99.90
5697;DHT22;2873;50.966;7.210;2022-08-06T06:24:09;14.70;99.90
5697;DHT22;2873;50.966;7.210;2022-08-06T06:26:50;14.80;99.90
5697;DHT22;2873;50.966;7.210;2022-08-06T06:32:14;15.10;99.90
5697;DHT22;2873;50.966;7.210;2022-08-06T06:37:59;15.40;99.90
5697;DHT22;2873;50.966;7.210;2022-08-06T06:40:35;15.40;99.90
5697;DHT22;2873;50.966;7.210;2022-08-06T06:46:30;15.60;99.90
5697;DHT22;2873;50.966;7.210;2022-08-06T06:48:41;15.70;99.90
5697;DHT22;2873;50.966;7.210;2022-08-06T06:51:26;15.80;99.90
5697;DHT22;2873;50.966;7.210;2022-08-06T06:53:53;16.10;99.90
5697;DHT22;2873;50.966;7.210;2022-08-06T06:56:24;15.90;99.90
5697;DHT22;2873;50.966;7.210;2022-08-06T06:58:55;16.10;99.90
5697;DHT22;2873;50.966;7.210;2022-08-06T07:01:23;16.30;99.90
5697;DHT22;2873;50.966;7.210;2022-08-06T07:03:49;16.00;99.90
5697;DHT22;2873;50.966;7.210;2022-08-06T07:06:17;16.40;99.90
5697;DHT22;2873;50.966;7.210;2022-08-06T07:08:45;16.50;99.90
5697;DHT22;2873;50.966;7.210;2022-08-06T07:11:19;16.50;99.90
5697;DHT22;2873;50.966;7.210;2022-08-06T07:13:46;16.60;99.90
5697;DHT22;2873;50.966;7.210;2022-08-06T07:16:14;16.70;99.90
5697;DHT22;2873;50.966;7.210;2022-08-06T07:18:42;16.90;99.90
5697;DHT22;2873;50.966;7.210;2022-08-06T07:21:08;16.90;99.90
5697;DHT22;2873;50.966;7.210;2022-08-06T07:23:34;16.90;99.90
5697;DHT22;2873;50.966;7.210;2022-08-06T07:26:00;17.10;99.90
5697;DHT22;2873;50.966;7.210;2022-08-06T07:28:27;17.20;99.90
5697;DHT22;2873;50.966;7.210;2022-08-06T07:30:56;17.20;99.90
5697;DHT22;2873;50.966;7.210;2022-08-06T07:33:22;17.20;99.90
5697;DHT22;2873;50.966;7.210;2022-08-06T07:35:50;17.30;99.90
5697;DHT22;2873;50.966;7.210;2022-08-06T07:38:17;17.40;99.90
5697;DHT22;2873;50.966;7.210;2022-08-06T07:40:52;17.60;99.90
5697;DHT22;2873;50.966;7.210;2022-08-06T07:43:28;17.60;99.90
5697;DHT22;2873;50.966;7.210;2022-08-06T07:45:57;17.80;99.90
5697;DHT22;2873;50.966;7.210;2022-08-06T07:48:28;17.90;99.90
5697;DHT22;2873;50.966;7.210;2022-08-06T07:50:57;18.00;99.90
5697;DHT22;2873;50.966;7.210;2022-08-06T07:53:24;18.10;99.90
5697;DHT22;2873;50.966;7.210;2022-08-06T07:55:50;18.20;99.90
5697;DHT22;2873;50.966;7.210;2022-08-06T07:58:17;18.20;99.90
5697;DHT22;2873;50.966;7.210;2022-08-06T08:00:43;18.40;99.90
5697;DHT22;2873;50.966;7.210;2022-08-06T08:03:10;18.40;99.90
5697;DHT22;2873;50.966;7.210;2022-08-06T08:05:55;18.60;99.90
5697;DHT22;2873;50.966;7.210;2022-08-06T08:08:39;18.80;99.90
5697;DHT22;2873;50.966;7.210;2022-08-06T08:11:06;18.80;99.90
5697;DHT22;2873;50.966;7.210;2022-08-06T08:13:32;18.90;99.90
5697;DHT22;2873;50.966;7.210;2022-08-06T08:16:00;19.10;99.90
5697;DHT22;2873;50.966;7.210;2022-08-06T08:18:32;19.20;99.90
5697;DHT22;2873;50.966;7.210;2022-08-06T08:21:02;19.30;99.90
5697;DHT22;2873;50.966;7.210;2022-08-06T08:23:29;19.40;99.90
5697;DHT22;2873;50.966;7.210;2022-08-06T08:25:57;19.60;99.90
5697;DHT22;2873;50.966;7.210;2022-08-06T08:28:23;19.90;99.90
5697;DHT22;2873;50.966;7.210;2022-08-06T08:30:49;19.90;99.90
5697;DHT22;2873;50.966;7.210;2022-08-06T08:33:15;20.00;99.90
5697;DHT22;2873;50.966;7.210;2022-08-06T08:35:41;20.10;99.90
5697;DHT22;2873;50.966;7.210;2022-08-06T08:38:07;20.20;99.90
5697;DHT22;2873;50.966;7.210;2022-08-06T08:40:34;20.40;99.90
5697;DHT22;2873;50.966;7.210;2022-08-06T08:43:01;20.50;99.90
5697;DHT22;2873;50.966;7.210;2022-08-06T08:45:28;20.50;99.90
5697;DHT22;2873;50.966;7.210;2022-08-06T08:47:56;20.40;99.90
5697;DHT22;2873;50.966;7.210;2022-08-06T08:50:25;20.70;99.90
5697;DHT22;2873;50.966;7.210;2022-08-06T08:53:02;20.40;99.90
5697;DHT22;2873;50.966;7.210;2022-08-06T08:55:29;20.50;99.90
5697;DHT22;2873;50.966;7.210;2022-08-06T08:57:55;20.50;99.90
5697;DHT22;2873;50.966;7.210;2022-08-06T09:00:22;20.60;99.90
5697;DHT22;2873;50.966;7.210;2022-08-06T09:02:48;20.70;99.90
5697;DHT22;2873;50.966;7.210;2022-08-06T09:05:15;20.90;99.90
5697;DHT22;2873;50.966;7.210;2022-08-06T09:07:41;21.00;99.90
5697;DHT22;2873;50.966;7.210;2022-08-06T09:10:08;20.70;99.90
5697;DHT22;2873;50.966;7.210;2022-08-06T09:12:34;20.60;99.90
5697;DHT22;2873;50.966;7.210;2022-08-06T09:15:00;20.60;99.90
5697;DHT22;2873;50.966;7.210;2022-08-06T09:17:26;20.70;99.90
5697;DHT22;2873;50.966;7.210;2022-08-06T09:19:53;21.00;99.90
5697;DHT22;2873;50.966;7.210;2022-08-06T09:22:19;20.90;99.90
5697;DHT22;2873;50.966;7.210;2022-08-06T09:24:45;21.00;99.90
5697;DHT22;2873;50.966;7.210;2022-08-06T09:27:17;21.40;99.90
5697;DHT22;2873;50.966;7.210;2022-08-06T09:32:45;21.40;99.90
5697;DHT22;2873;50.966;7.210;2022-08-06T09:35:22;21.50;99.90
5697;DHT22;2873;50.966;7.210;2022-08-06T09:37:50;21.60;99.90
5697;DHT22;2873;50.966;7.210;2022-08-06T09:40:23;21.70;99.90
5697;DHT22;2873;50.966;7.210;2022-08-06T09:42:50;21.70;99.90
5697;DHT22;2873;50.966;7.210;2022-08-06T09:45:18;21.80;99.90
5697;DHT22;2873;50.966;7.210;2022-08-06T09:47:49;21.80;99.90
5697;DHT22;2873;50.966;7.210;2022-08-06T09:50:44;21.80;99.90
5697;DHT22;2873;50.966;7.210;2022-08-06T09:53:11;21.90;99.90
5697;DHT22;2873;50.966;7.210;2022-08-06T09:55:37;21.80;99.90
5697;DHT22;2873;50.966;7.210;2022-08-06T09:58:03;21.90;99.90
5697;DHT22;2873;50.966;7.210;2022-08-06T10:00:34;21.90;99.90
5697;DHT22;2873;50.966;7.210;2022-08-06T10:03:02;21.80;99.90
5697;DHT22;2873;50.966;7.210;2022-08-06T10:05:29;21.80;99.90
5697;DHT22;2873;50.966;7.210;2022-08-06T10:08:10;21.80;99.90
5697;DHT22;2873;50.966;7.210;2022-08-06T10:10:42;21.90;99.90
5697;DHT22;2873;50.966;7.210;2022-08-06T10:15:44;22.00;99.90
5697;DHT22;2873;50.966;7.210;2022-08-06T10:21:08;22.00;99.90
5697;DHT22;2873;50.966;7.210;2022-08-06T10:23:35;22.00;99.90
5697;DHT22;2873;50.966;7.210;2022-08-06T10:26:04;22.10;99.90
5697;DHT22;2873;50.966;7.210;2022-08-06T10:28:33;22.10;99.90
5697;DHT22;2873;50.966;7.210;2022-08-06T10:31:05;22.10;99.90
5697;DHT22;2873;50.966;7.210;2022-08-06T10:33:51;22.40;99.90
5697;DHT22;2873;50.966;7.210;2022-08-06T10:36:22;22.60;99.90
5697;DHT22;2873;50.966;7.210;2022-08-06T10:38:50;22.80;99.90
5697;DHT22;2873;50.966;7.210;2022-08-06T10:41:18;22.90;99.90
5697;DHT22;2873;50.966;7.210;2022-08-06T10:43:45;23.00;99.90
5697;DHT22;2873;50.966;7.210;2022-08-06T10:46:12;23.20;99.90
5697;DHT22;2873;50.966;7.210;2022-08-06T10:48:42;23.20;99.90
5697;DHT22;2873;50.966;7.210;2022-08-06T10:51:10;23.30;99.90
5697;DHT22;2873;50.966;7.210;2022-08-06T10:53:40;23.50;99.90
5697;DHT22;2873;50.966;7.210;2022-08-06T10:56:08;23.40;99.90
5697;DHT22;2873;50.966;7.210;2022-08-06T10:58:35;23.30;99.90
5697;DHT22;2873;50.966;7.210;2022-08-06T11:01:10;23.20;99.90
5697;DHT22;2873;50.966;7.210;2022-08-06T11:12:14;23.30;99.90
5697;DHT22;2873;50.966;7.210;2022-08-06T11:14:44;23.30;99.90
5697;DHT22;2873;50.966;7.210;2022-08-06T11:17:10;23.30;99.90
5697;DHT22;2873;50.966;7.210;2022-08-06T11:19:48;23.40;99.90
5697;DHT22;2873;50.966;7.210;2022-08-06T11:22:39;23.50;99.90
5697;DHT22;2873;50.966;7.210;2022-08-06T11:25:07;23.40;99.90
5697;DHT22;2873;50.966;7.210;2022-08-06T11:27:56;23.40;99.90
5697;DHT22;2873;50.966;7.210;2022-08-06T11:33:04;23.60;99.90
5697;DHT22;2873;50.966;7.210;2022-08-06T11:38:01;23.90;99.90
5697;DHT22;2873;50.966;7.210;2022-08-06T11:40:27;23.90;99.90
5697;DHT22;2873;50.966;7.210;2022-08-06T11:42:53;24.00;99.90
5697;DHT22;2873;50.966;7.210;2022-08-06T11:45:19;23.80;99.90
5697;DHT22;2873;50.966;7.210;2022-08-06T11:48:04;23.90;99.90
5697;DHT22;2873;50.966;7.210;2022-08-06T11:50:30;23.90;99.90
5697;DHT22;2873;50.966;7.210;2022-08-06T11:52:55;24.00;99.90
5697;DHT22;2873;50.966;7.210;2022-08-06T11:55:21;24.10;99.90
5697;DHT22;2873;50.966;7.210;2022-08-06T11:57:47;24.30;99.90
5697;DHT22;2873;50.966;7.210;2022-08-06T12:00:22;24.60;99.90
5697;DHT22;2873;50.966;7.210;2022-08-06T12:02:52;24.80;99.90
5697;DHT22;2873;50.966;7.210;2022-08-06T12:07:46;25.20;99.20
5697;DHT22;2873;50.966;7.210;2022-08-06T12:10:15;25.30;98.30
5697;DHT22;2873;50.966;7.210;2022-08-06T12:12:49;25.50;99.00
5697;DHT22;2873;50.966;7.210;2022-08-06T12:18:00;25.80;98.20
5697;DHT22;2873;50.966;7.210;2022-08-06T12:20:40;26.10;96.90
5697;DHT22;2873;50.966;7.210;2022-08-06T12:23:11;26.20;96.20
5697;DHT22;2873;50.966;7.210;2022-08-06T12:25:45;26.10;95.50
5697;DHT22;2873;50.966;7.210;2022-08-06T12:28:14;26.10;95.50
5697;DHT22;2873;50.966;7.210;2022-08-06T12:30:44;26.00;95.50
5697;DHT22;2873;50.966;7.210;2022-08-06T12:33:10;26.10;95.80
5697;DHT22;2873;50.966;7.210;2022-08-06T12:35:57;26.00;95.70
5697;DHT22;2873;50.966;7.210;2022-08-06T12:38:33;26.10;95.40
5697;DHT22;2873;50.966;7.210;2022-08-06T12:41:09;26.00;95.90
5697;DHT22;2873;50.966;7.210;2022-08-06T12:43:35;26.10;94.00
5697;DHT22;2873;50.966;7.210;2022-08-06T12:46:03;26.20;95.70
5697;DHT22;2873;50.966;7.210;2022-08-06T12:48:30;26.30;94.40
5697;DHT22;2873;50.966;7.210;2022-08-06T12:51:07;26.40;94.30
5697;DHT22;2873;50.966;7.210;2022-08-06T12:53:38;26.20;94.10
5697;DHT22;2873;50.966;7.210;2022-08-06T12:56:04;26.10;94.50
5697;DHT22;2873;50.966;7.210;2022-08-06T12:58:36;26.10;94.70
5697;DHT22;2873;50.966;7.210;2022-08-06T13:01:03;26.30;95.20
5697;DHT22;2873;50.966;7.210;2022-08-06T13:03:30;26.20;94.10
5697;DHT22;2873;50.966;7.210;2022-08-06T13:05:59;26.40;94.20
5697;DHT22;2873;50.966;7.210;2022-08-06T13:08:25;26.50;95.00
5697;DHT22;2873;50.966;7.210;2022-08-06T13:10:53;26.80;94.00
5697;DHT22;2873;50.966;7.210;2022-08-06T13:13:20;27.00;93.40
5697;DHT22;2873;50.966;7.210;2022-08-06T13:16:04;27.20;93.80
5697;DHT22;2873;50.966;7.210;2022-08-06T13:18:30;27.30;93.10
5697;DHT22;2873;50.966;7.210;2022-08-06T13:20:57;27.30;92.30
5697;DHT22;2873;50.966;7.210;2022-08-06T13:23:34;27.30;93.20
5697;DHT22;2873;50.966;7.210;2022-08-06T13:26:11;27.20;93.00
5697;DHT22;2873;50.966;7.210;2022-08-06T13:28:37;27.50;93.00
5697;DHT22;2873;50.966;7.210;2022-08-06T13:31:17;27.70;92.50
5697;DHT22;2873;50.966;7.210;2022-08-06T13:33:42;28.30;92.30
5697;DHT22;2873;50.966;7.210;2022-08-06T13:36:09;28.70;90.90
5697;DHT22;2873;50.966;7.210;2022-08-06T13:38:37;29.20;89.50
5697;DHT22;2873;50.966;7.210;2022-08-06T13:41:03;29.80;90.70
5697;DHT22;2873;50.966;7.210;2022-08-06T13:43:43;30.30;90.30
5697;DHT22;2873;50.966;7.210;2022-08-06T13:46:14;30.30;88.20
5697;DHT22;2873;50.966;7.210;2022-08-06T13:48:45;29.90;86.10
5697;DHT22;2873;50.966;7.210;2022-08-06T13:51:12;29.50;89.10
5697;DHT22;2873;50.966;7.210;2022-08-06T13:53:38;29.10;89.10
5697;DHT22;2873;50.966;7.210;2022-08-06T13:56:04;29.10;90.20
5697;DHT22;2873;50.966;7.210;2022-08-06T13:58:30;29.20;90.50
5697;DHT22;2873;50.966;7.210;2022-08-06T14:00:55;29.10;88.40
5697;DHT22;2873;50.966;7.210;2022-08-06T14:03:21;29.30;90.00
5697;DHT22;2873;50.966;7.210;2022-08-06T14:05:47;29.40;89.10
5697;DHT22;2873;50.966;7.210;2022-08-06T14:08:12;29.40;90.00
5697;DHT22;2873;50.966;7.210;2022-08-06T14:10:39;29.50;89.80
5697;DHT22;2873;50.966;7.210;2022-08-06T14:13:04;29.40;90.00
5697;DHT22;2873;50.966;7.210;2022-08-06T14:15:50;29.40;89.70
5697;DHT22;2873;50.966;7.210;2022-08-06T14:18:17;29.30;89.30
5697;DHT22;2873;50.966;7.210;2022-08-06T14:20:43;29.40;90.90
5697;DHT22;2873;50.966;7.210;2022-08-06T14:23:10;29.10;88.00
5697;DHT22;2873;50.966;7.210;2022-08-06T14:25:35;29.10;88.20
5697;DHT22;2873;50.966;7.210;2022-08-06T14:28:03;29.00;87.60
5697;DHT22;2873;50.966;7.210;2022-08-06T14:30:28;29.00;86.80
5697;DHT22;2873;50.966;7.210;2022-08-06T14:32:54;28.90;85.90
5697;DHT22;2873;50.966;7.210;2022-08-06T14:35:20;28.80;87.20
5697;DHT22;2873;50.966;7.210;2022-08-06T14:37:46;28.90;85.50
5697;DHT22;2873;50.966;7.210;2022-08-06T14:40:13;28.90;86.40
5697;DHT22;2873;50.966;7.210;2022-08-06T14:42:39;28.80;87.90
5697;DHT22;2873;50.966;7.210;2022-08-06T14:45:34;28.50;85.10
5697;DHT22;2873;50.966;7.210;2022-08-06T14:47:59;28.60;89.40
5697;DHT22;2873;50.966;7.210;2022-08-06T14:50:25;28.70;88.50
5697;DHT22;2873;50.966;7.210;2022-08-06T14:52:50;28.50;87.80
5697;DHT22;2873;50.966;7.210;2022-08-06T14:55:16;28.50;87.40
5697;DHT22;2873;50.966;7.210;2022-08-06T14:57:42;28.30;86.40
5697;DHT22;2873;50.966;7.210;2022-08-06T15:00:08;28.40;86.70
5697;DHT22;2873;50.966;7.210;2022-08-06T15:02:34;28.20;86.60
5697;DHT22;2873;50.966;7.210;2022-08-06T15:05:00;28.20;87.10
5697;DHT22;2873;50.966;7.210;2022-08-06T15:07:25;28.00;85.70
5697;DHT22;2873;50.966;7.210;2022-08-06T15:09:51;28.00;84.70
5697;DHT22;2873;50.966;7.210;2022-08-06T15:12:17;28.10;87.70
5697;DHT22;2873;50.966;7.210;2022-08-06T15:14:43;28.00;87.30
5697;DHT22;2873;50.966;7.210;2022-08-06T15:17:09;28.00;84.50
5697;DHT22;2873;50.966;7.210;2022-08-06T15:19:36;28.00;86.00
5697;DHT22;2873;50.966;7.210;2022-08-06T15:22:01;27.90;86.20
5697;DHT22;2873;50.966;7.210;2022-08-06T15:24:27;27.80;85.20
5697;DHT22;2873;50.966;7.210;2022-08-06T15:26:54;27.90;84.90
5697;DHT22;2873;50.966;7.210;2022-08-06T15:29:22;27.90;86.70
5697;DHT22;2873;50.966;7.210;2022-08-06T15:31:49;27.90;87.20
5697;DHT22;2873;50.966;7.210;2022-08-06T15:34:15;27.90;86.00
5697;DHT22;2873;50.966;7.210;2022-08-06T15:36:41;27.90;87.50
5697;DHT22;2873;50.966;7.210;2022-08-06T15:39:07;27.70;85.70
5697;DHT22;2873;50.966;7.210;2022-08-06T15:41:33;27.80;85.20
5697;DHT22;2873;50.966;7.210;2022-08-06T15:43:59;27.70;86.70
5697;DHT22;2873;50.966;7.210;2022-08-06T15:46:24;27.70;88.50
5697;DHT22;2873;50.966;7.210;2022-08-06T15:48:50;27.70;86.60
5697;DHT22;2873;50.966;7.210;2022-08-06T15:51:22;27.80;85.70
5697;DHT22;2873;50.966;7.210;2022-08-06T15:53:49;27.70;86.30
5697;DHT22;2873;50.966;7.210;2022-08-06T15:56:14;27.50;84.00
5697;DHT22;2873;50.966;7.210;2022-08-06T15:58:40;27.40;83.30
5697;DHT22;2873;50.966;7.210;2022-08-06T16:01:05;27.50;85.20
5697;DHT22;2873;50.966;7.210;2022-08-06T16:03:32;27.20;83.20
5697;DHT22;2873;50.966;7.210;2022-08-06T16:05:57;27.10;84.40
5697;DHT22;2873;50.966;7.210;2022-08-06T16:08:23;27.20;86.10
5697;DHT22;2873;50.966;7.210;2022-08-06T16:10:49;27.20;85.40
5697;DHT22;2873;50.966;7.210;2022-08-06T16:13:16;27.10;84.20
5697;DHT22;2873;50.966;7.210;2022-08-06T16:15:46;27.20;84.30
5697;DHT22;2873;50.966;7.210;2022-08-06T16:18:15;27.10;84.70
5697;DHT22;2873;50.966;7.210;2022-08-06T16:20:41;27.10;85.00
5697;DHT22;2873;50.966;7.210;2022-08-06T16:23:08;27.00;85.10
5697;DHT22;2873;50.966;7.210;2022-08-06T16:25:34;27.00;86.00
5697;DHT22;2873;50.966;7.210;2022-08-06T16:28:00;26.90;84.60
5697;DHT22;2873;50.966;7.210;2022-08-06T16:30:26;26.80;84.70
5697;DHT22;2873;50.966;7.210;2022-08-06T16:32:51;26.70;84.70
5697;DHT22;2873;50.966;7.210;2022-08-06T16:35:18;26.70;84.50
5697;DHT22;2873;50.966;7.210;2022-08-06T16:37:44;26.60;84.10
5697;DHT22;2873;50.966;7.210;2022-08-06T16:40:10;26.50;83.40
5697;DHT22;2873;50.966;7.210;2022-08-06T16:42:36;26.30;83.20
5697;DHT22;2873;50.966;7.210;2022-08-06T16:45:03;26.10;84.50
5697;DHT22;2873;50.966;7.210;2022-08-06T16:47:29;26.10;84.10
5697;DHT22;2873;50.966;7.210;2022-08-06T16:49:54;26.20;85.20
5697;DHT22;2873;50.966;7.210;2022-08-06T16:52:20;26.10;84.40
5697;DHT22;2873;50.966;7.210;2022-08-06T16:54:46;26.00;84.80
5697;DHT22;2873;50.966;7.210;2022-08-06T16:57:11;26.00;84.60
5697;DHT22;2873;50.966;7.210;2022-08-06T16:59:37;26.00;84.80